Terminal Aerodrome Forecast
Issued by NWS

Home | Current Version | Previous Version | Text Only | Print | Product List | Glossary On
Versions: 1 2 3 4 5 6 7 8 9 10 11 12 13 14 15 16 17 18 19 20
547
FTUS45 KTFX 011748
TAFLWT
TAF
KLWT 011748Z 0118/0218 24022G35KT P6SM SCT050 BKN100
     FM020100 29020G35KT 3SM -SN BR BKN025
     FM020600 28015KT 3SM -SN BR BKN020
     FM020900 29010KT P6SM VCSH BKN030
     FM021300 25008KT P6SM SCT030 BKN070=

USA.gov is the U.S. government's official web portal to all federal, state and local government web resources and services.